sensor_id;sensor_type;location;lat;lon;timestamp;temperature;humidity
11812;DHT22;5963;50.184;9.162;2023-02-18T00:00:46;10.30;99.90
11812;DHT22;5963;50.184;9.162;2023-02-18T00:03:31;10.30;99.90
11812;DHT22;5963;50.184;9.162;2023-02-18T00:06:01;10.30;99.90
11812;DHT22;5963;50.184;9.162;2023-02-18T00:08:40;10.40;99.90
11812;DHT22;5963;50.184;9.162;2023-02-18T00:11:30;10.40;99.90
11812;DHT22;5963;50.184;9.162;2023-02-18T00:17:11;10.40;99.90
11812;DHT22;5963;50.184;9.162;2023-02-18T00:19:45;10.30;99.90
11812;DHT22;5963;50.184;9.162;2023-02-18T00:22:20;10.30;99.90
11812;DHT22;5963;50.184;9.162;2023-02-18T00:25:23;10.30;99.90
11812;DHT22;5963;50.184;9.162;2023-02-18T00:27:56;10.30;99.90
11812;DHT22;5963;50.184;9.162;2023-02-18T00:30:34;10.30;99.90
11812;DHT22;5963;50.184;9.162;2023-02-18T00:33:08;10.30;99.90
11812;DHT22;5963;50.184;9.162;2023-02-18T00:35:39;10.30;99.90
11812;DHT22;5963;50.184;9.162;2023-02-18T00:38:14;10.20;99.90
11812;DHT22;5963;50.184;9.162;2023-02-18T00:40:57;10.20;99.90
11812;DHT22;5963;50.184;9.162;2023-02-18T00:43:34;10.10;99.90
11812;DHT22;5963;50.184;9.162;2023-02-18T00:46:07;10.10;99.90
11812;DHT22;5963;50.184;9.162;2023-02-18T00:48:56;10.10;99.90
11812;DHT22;5963;50.184;9.162;2023-02-18T00:51:29;10.10;99.90
11812;DHT22;5963;50.184;9.162;2023-02-18T00:54:12;10.10;99.90
11812;DHT22;5963;50.184;9.162;2023-02-18T00:56:46;10.10;99.90
11812;DHT22;5963;50.184;9.162;2023-02-18T00:59:28;10.10;99.90
11812;DHT22;5963;50.184;9.162;2023-02-18T01:02:47;10.00;99.90
11812;DHT22;5963;50.184;9.162;2023-02-18T01:05:38;10.10;99.90
11812;DHT22;5963;50.184;9.162;2023-02-18T01:08:38;10.10;99.90
11812;DHT22;5963;50.184;9.162;2023-02-18T01:11:13;10.10;99.90
11812;DHT22;5963;50.184;9.162;2023-02-18T01:14:33;10.10;99.90
11812;DHT22;5963;50.184;9.162;2023-02-18T01:17:38;10.10;99.90
11812;DHT22;5963;50.184;9.162;2023-02-18T01:20:43;10.00;99.90
11812;DHT22;5963;50.184;9.162;2023-02-18T01:23:30;10.10;99.90
11812;DHT22;5963;50.184;9.162;2023-02-18T01:39:32;10.20;99.90
11812;DHT22;5963;50.184;9.162;2023-02-18T01:47:44;10.20;99.90
11812;DHT22;5963;50.184;9.162;2023-02-18T01:50:57;10.10;99.90
11812;DHT22;5963;50.184;9.162;2023-02-18T01:54:07;10.10;99.90
11812;DHT22;5963;50.184;9.162;2023-02-18T01:57:24;10.10;99.90
11812;DHT22;5963;50.184;9.162;2023-02-18T02:00:52;10.10;99.90
11812;DHT22;5963;50.184;9.162;2023-02-18T02:08:28;10.10;99.90
11812;DHT22;5963;50.184;9.162;2023-02-18T02:22:48;10.00;99.90
11812;DHT22;5963;50.184;9.162;2023-02-18T02:29:43;10.00;99.90
11812;DHT22;5963;50.184;9.162;2023-02-18T02:40:18;10.00;99.90
11812;DHT22;5963;50.184;9.162;2023-02-18T02:43:51;10.10;99.90
11812;DHT22;5963;50.184;9.162;2023-02-18T02:47:13;10.10;99.90
11812;DHT22;5963;50.184;9.162;2023-02-18T02:50:16;10.10;99.90
11812;DHT22;5963;50.184;9.162;2023-02-18T02:54:09;10.10;99.90
11812;DHT22;5963;50.184;9.162;2023-02-18T02:59:58;10.10;99.90
11812;DHT22;5963;50.184;9.162;2023-02-18T03:03:18;10.10;99.90
11812;DHT22;5963;50.184;9.162;2023-02-18T03:07:12;10.10;99.90
11812;DHT22;5963;50.184;9.162;2023-02-18T03:14:01;10.10;99.90
11812;DHT22;5963;50.184;9.162;2023-02-18T03:19:41;10.10;99.90
11812;DHT22;5963;50.184;9.162;2023-02-18T03:22:46;10.10;99.90
11812;DHT22;5963;50.184;9.162;2023-02-18T03:25:24;10.00;99.90
11812;DHT22;5963;50.184;9.162;2023-02-18T03:28:14;10.00;99.90
11812;DHT22;5963;50.184;9.162;2023-02-18T03:30:55;10.00;99.90
11812;DHT22;5963;50.184;9.162;2023-02-18T03:33:42;10.10;99.90
11812;DHT22;5963;50.184;9.162;2023-02-18T03:36:22;10.10;99.90
11812;DHT22;5963;50.184;9.162;2023-02-18T03:39:02;10.10;99.90
11812;DHT22;5963;50.184;9.162;2023-02-18T03:41:36;10.10;99.90
11812;DHT22;5963;50.184;9.162;2023-02-18T03:44:16;10.10;99.90
11812;DHT22;5963;50.184;9.162;2023-02-18T03:46:47;10.10;99.90
11812;DHT22;5963;50.184;9.162;2023-02-18T03:49:29;10.10;99.90
11812;DHT22;5963;50.184;9.162;2023-02-18T03:52:02;10.10;99.90
11812;DHT22;5963;50.184;9.162;2023-02-18T03:54:33;10.10;99.90
11812;DHT22;5963;50.184;9.162;2023-02-18T03:57:05;10.10;99.90
11812;DHT22;5963;50.184;9.162;2023-02-18T03:59:35;10.10;99.90
11812;DHT22;5963;50.184;9.162;2023-02-18T04:02:06;10.00;99.90
11812;DHT22;5963;50.184;9.162;2023-02-18T04:04:36;10.00;99.90
11812;DHT22;5963;50.184;9.162;2023-02-18T04:07:13;10.00;99.90
11812;DHT22;5963;50.184;9.162;2023-02-18T04:09:43;10.00;99.90
11812;DHT22;5963;50.184;9.162;2023-02-18T04:12:13;9.90;99.90
11812;DHT22;5963;50.184;9.162;2023-02-18T04:14:45;9.90;99.90
11812;DHT22;5963;50.184;9.162;2023-02-18T04:17:22;10.00;99.90
11812;DHT22;5963;50.184;9.162;2023-02-18T04:19:52;10.00;99.90
11812;DHT22;5963;50.184;9.162;2023-02-18T04:22:29;10.00;99.90
11812;DHT22;5963;50.184;9.162;2023-02-18T04:25:06;9.90;99.90
11812;DHT22;5963;50.184;9.162;2023-02-18T04:27:38;10.00;99.90
11812;DHT22;5963;50.184;9.162;2023-02-18T04:30:12;9.90;99.90
11812;DHT22;5963;50.184;9.162;2023-02-18T04:32:48;9.90;99.90
11812;DHT22;5963;50.184;9.162;2023-02-18T04:38:19;9.90;99.90
11812;DHT22;5963;50.184;9.162;2023-02-18T04:41:28;10.00;99.90
11812;DHT22;5963;50.184;9.162;2023-02-18T04:44:05;10.00;99.90
11812;DHT22;5963;50.184;9.162;2023-02-18T04:46:35;10.00;99.90
11812;DHT22;5963;50.184;9.162;2023-02-18T04:49:06;10.00;99.90
11812;DHT22;5963;50.184;9.162;2023-02-18T04:51:36;10.00;99.90
11812;DHT22;5963;50.184;9.162;2023-02-18T04:54:08;10.00;99.90
11812;DHT22;5963;50.184;9.162;2023-02-18T04:56:38;10.00;99.90
11812;DHT22;5963;50.184;9.162;2023-02-18T04:59:14;10.00;99.90
11812;DHT22;5963;50.184;9.162;2023-02-18T05:01:48;10.00;99.90
11812;DHT22;5963;50.184;9.162;2023-02-18T05:04:19;9.90;99.90
11812;DHT22;5963;50.184;9.162;2023-02-18T05:06:49;9.90;99.90
11812;DHT22;5963;50.184;9.162;2023-02-18T05:09:19;9.80;99.90
11812;DHT22;5963;50.184;9.162;2023-02-18T05:11:49;9.80;99.90
11812;DHT22;5963;50.184;9.162;2023-02-18T05:14:19;9.80;99.90
11812;DHT22;5963;50.184;9.162;2023-02-18T05:16:51;9.80;99.90
11812;DHT22;5963;50.184;9.162;2023-02-18T05:19:23;9.70;99.90
11812;DHT22;5963;50.184;9.162;2023-02-18T05:21:57;9.80;99.90
11812;DHT22;5963;50.184;9.162;2023-02-18T05:24:36;9.80;99.90
11812;DHT22;5963;50.184;9.162;2023-02-18T05:27:06;9.80;99.90
11812;DHT22;5963;50.184;9.162;2023-02-18T05:29:38;9.80;99.90
11812;DHT22;5963;50.184;9.162;2023-02-18T05:32:08;9.80;99.90
11812;DHT22;5963;50.184;9.162;2023-02-18T05:34:39;9.80;99.90
11812;DHT22;5963;50.184;9.162;2023-02-18T05:37:13;9.80;99.90
11812;DHT22;5963;50.184;9.162;2023-02-18T05:39:46;9.80;99.90
11812;DHT22;5963;50.184;9.162;2023-02-18T05:42:19;9.70;99.90
11812;DHT22;5963;50.184;9.162;2023-02-18T05:44:52;9.70;99.90
11812;DHT22;5963;50.184;9.162;2023-02-18T05:47:24;9.70;99.90
11812;DHT22;5963;50.184;9.162;2023-02-18T05:49:56;9.70;99.90
11812;DHT22;5963;50.184;9.162;2023-02-18T05:52:37;9.70;99.90
11812;DHT22;5963;50.184;9.162;2023-02-18T05:55:10;9.70;99.90
11812;DHT22;5963;50.184;9.162;2023-02-18T05:57:40;9.70;99.90
11812;DHT22;5963;50.184;9.162;2023-02-18T06:00:11;9.70;99.90
11812;DHT22;5963;50.184;9.162;2023-02-18T06:02:44;9.70;99.90
11812;DHT22;5963;50.184;9.162;2023-02-18T06:05:15;9.70;99.90
11812;DHT22;5963;50.184;9.162;2023-02-18T06:07:46;9.70;99.90
11812;DHT22;5963;50.184;9.162;2023-02-18T06:10:16;9.70;99.90
11812;DHT22;5963;50.184;9.162;2023-02-18T06:12:46;9.70;99.90
11812;DHT22;5963;50.184;9.162;2023-02-18T06:15:21;9.70;99.90
11812;DHT22;5963;50.184;9.162;2023-02-18T06:17:52;9.70;99.90
11812;DHT22;5963;50.184;9.162;2023-02-18T06:20:23;9.70;99.90
11812;DHT22;5963;50.184;9.162;2023-02-18T06:23:28;9.70;99.90
11812;DHT22;5963;50.184;9.162;2023-02-18T06:26:31;9.60;99.90
11812;DHT22;5963;50.184;9.162;2023-02-18T06:29:29;9.60;99.90
11812;DHT22;5963;50.184;9.162;2023-02-18T06:32:31;9.70;99.90
11812;DHT22;5963;50.184;9.162;2023-02-18T06:35:06;9.70;99.90
11812;DHT22;5963;50.184;9.162;2023-02-18T06:41:24;9.70;99.90
11812;DHT22;5963;50.184;9.162;2023-02-18T06:44:14;9.70;99.90
11812;DHT22;5963;50.184;9.162;2023-02-18T06:47:05;9.80;99.90
11812;DHT22;5963;50.184;9.162;2023-02-18T06:49:38;9.80;99.90
11812;DHT22;5963;50.184;9.162;2023-02-18T06:52:07;9.80;99.90
11812;DHT22;5963;50.184;9.162;2023-02-18T06:55:00;9.90;99.90
11812;DHT22;5963;50.184;9.162;2023-02-18T06:58:13;10.00;99.90
11812;DHT22;5963;50.184;9.162;2023-02-18T07:04:43;10.00;99.90
11812;DHT22;5963;50.184;9.162;2023-02-18T07:07:18;10.00;99.90
11812;DHT22;5963;50.184;9.162;2023-02-18T07:10:04;10.00;99.90
11812;DHT22;5963;50.184;9.162;2023-02-18T07:12:38;10.10;99.90
11812;DHT22;5963;50.184;9.162;2023-02-18T07:15:20;10.10;99.90
11812;DHT22;5963;50.184;9.162;2023-02-18T07:17:52;10.10;99.90
11812;DHT22;5963;50.184;9.162;2023-02-18T07:20:42;10.10;99.90
11812;DHT22;5963;50.184;9.162;2023-02-18T07:23:48;10.10;99.90
11812;DHT22;5963;50.184;9.162;2023-02-18T07:26:32;10.10;99.90
11812;DHT22;5963;50.184;9.162;2023-02-18T07:29:06;10.10;99.90
11812;DHT22;5963;50.184;9.162;2023-02-18T07:37:46;10.20;99.90
11812;DHT22;5963;50.184;9.162;2023-02-18T07:40:20;10.30;99.90
11812;DHT22;5963;50.184;9.162;2023-02-18T07:42:52;10.30;99.90
11812;DHT22;5963;50.184;9.162;2023-02-18T07:45:37;10.30;99.90
11812;DHT22;5963;50.184;9.162;2023-02-18T07:48:11;10.40;99.90
11812;DHT22;5963;50.184;9.162;2023-02-18T07:50:42;10.40;99.90
11812;DHT22;5963;50.184;9.162;2023-02-18T07:53:20;10.40;99.90
11812;DHT22;5963;50.184;9.162;2023-02-18T07:56:24;10.40;99.90
11812;DHT22;5963;50.184;9.162;2023-02-18T07:59:11;10.40;99.90
11812;DHT22;5963;50.184;9.162;2023-02-18T08:01:57;10.30;99.90
11812;DHT22;5963;50.184;9.162;2023-02-18T08:04:36;10.30;99.90
11812;DHT22;5963;50.184;9.162;2023-02-18T08:07:18;10.40;99.90
11812;DHT22;5963;50.184;9.162;2023-02-18T08:09:59;10.40;99.90
11812;DHT22;5963;50.184;9.162;2023-02-18T08:12:55;10.40;99.90
11812;DHT22;5963;50.184;9.162;2023-02-18T08:15:27;10.50;99.90
11812;DHT22;5963;50.184;9.162;2023-02-18T08:17:55;10.50;99.90
11812;DHT22;5963;50.184;9.162;2023-02-18T08:20:30;10.50;99.90
11812;DHT22;5963;50.184;9.162;2023-02-18T08:23:13;10.50;99.90
11812;DHT22;5963;50.184;9.162;2023-02-18T08:25:53;10.60;99.90
11812;DHT22;5963;50.184;9.162;2023-02-18T08:28:23;10.60;99.90
11812;DHT22;5963;50.184;9.162;2023-02-18T08:30:52;10.60;99.90
11812;DHT22;5963;50.184;9.162;2023-02-18T08:33:24;10.70;99.90
11812;DHT22;5963;50.184;9.162;2023-02-18T08:35:53;10.70;99.90
11812;DHT22;5963;50.184;9.162;2023-02-18T08:38:27;10.70;99.90
11812;DHT22;5963;50.184;9.162;2023-02-18T08:41:03;10.70;99.90
11812;DHT22;5963;50.184;9.162;2023-02-18T08:43:32;10.70;99.90
11812;DHT22;5963;50.184;9.162;2023-02-18T08:46:00;10.80;99.90
11812;DHT22;5963;50.184;9.162;2023-02-18T08:48:29;10.80;99.90
11812;DHT22;5963;50.184;9.162;2023-02-18T08:50:57;10.80;99.90
11812;DHT22;5963;50.184;9.162;2023-02-18T08:53:27;10.80;99.90
11812;DHT22;5963;50.184;9.162;2023-02-18T08:55:59;10.90;99.90
11812;DHT22;5963;50.184;9.162;2023-02-18T08:58:31;10.90;99.90
11812;DHT22;5963;50.184;9.162;2023-02-18T09:01:04;11.00;99.90
11812;DHT22;5963;50.184;9.162;2023-02-18T09:03:34;10.90;99.90
11812;DHT22;5963;50.184;9.162;2023-02-18T09:06:06;11.00;99.90
11812;DHT22;5963;50.184;9.162;2023-02-18T09:08:36;11.10;99.90
11812;DHT22;5963;50.184;9.162;2023-02-18T09:11:08;11.10;99.90
11812;DHT22;5963;50.184;9.162;2023-02-18T09:13:40;11.20;99.90
11812;DHT22;5963;50.184;9.162;2023-02-18T09:16:10;11.20;99.90
11812;DHT22;5963;50.184;9.162;2023-02-18T09:18:39;11.10;99.90
11812;DHT22;5963;50.184;9.162;2023-02-18T09:21:13;11.10;99.90
11812;DHT22;5963;50.184;9.162;2023-02-18T09:23:44;11.10;99.90
11812;DHT22;5963;50.184;9.162;2023-02-18T09:26:17;11.00;99.90
11812;DHT22;5963;50.184;9.162;2023-02-18T09:28:49;11.10;99.90
11812;DHT22;5963;50.184;9.162;2023-02-18T09:31:22;11.10;99.90
11812;DHT22;5963;50.184;9.162;2023-02-18T09:33:52;11.20;99.90
11812;DHT22;5963;50.184;9.162;2023-02-18T09:36:21;11.20;99.90
11812;DHT22;5963;50.184;9.162;2023-02-18T09:38:49;11.20;99.90
11812;DHT22;5963;50.184;9.162;2023-02-18T09:41:26;11.20;99.90
11812;DHT22;5963;50.184;9.162;2023-02-18T09:44:00;11.20;99.90
11812;DHT22;5963;50.184;9.162;2023-02-18T09:46:36;11.10;99.90
11812;DHT22;5963;50.184;9.162;2023-02-18T09:49:12;11.00;99.90
11812;DHT22;5963;50.184;9.162;2023-02-18T09:51:41;11.00;99.90
11812;DHT22;5963;50.184;9.162;2023-02-18T09:54:15;11.00;99.90
11812;DHT22;5963;50.184;9.162;2023-02-18T09:56:45;11.00;99.90
11812;DHT22;5963;50.184;9.162;2023-02-18T09:59:18;11.10;99.90
11812;DHT22;5963;50.184;9.162;2023-02-18T10:01:51;11.00;99.90
11812;DHT22;5963;50.184;9.162;2023-02-18T10:04:26;11.10;99.90
11812;DHT22;5963;50.184;9.162;2023-02-18T10:06:57;11.00;99.90
11812;DHT22;5963;50.184;9.162;2023-02-18T10:09:29;11.00;99.90
11812;DHT22;5963;50.184;9.162;2023-02-18T10:12:06;11.00;99.90
11812;DHT22;5963;50.184;9.162;2023-02-18T10:14:36;10.90;99.90
11812;DHT22;5963;50.184;9.162;2023-02-18T10:17:05;10.90;99.90
11812;DHT22;5963;50.184;9.162;2023-02-18T10:19:37;10.90;99.90
11812;DHT22;5963;50.184;9.162;2023-02-18T10:22:08;10.90;99.90
11812;DHT22;5963;50.184;9.162;2023-02-18T10:24:43;10.90;99.90
11812;DHT22;5963;50.184;9.162;2023-02-18T10:27:17;10.80;99.90
11812;DHT22;5963;50.184;9.162;2023-02-18T10:29:49;10.80;99.90
11812;DHT22;5963;50.184;9.162;2023-02-18T10:32:22;10.80;99.90
11812;DHT22;5963;50.184;9.162;2023-02-18T10:34:53;10.90;99.90
11812;DHT22;5963;50.184;9.162;2023-02-18T10:37:37;10.90;99.90
11812;DHT22;5963;50.184;9.162;2023-02-18T10:40:15;10.80;99.90
11812;DHT22;5963;50.184;9.162;2023-02-18T10:42:54;10.90;99.90
11812;DHT22;5963;50.184;9.162;2023-02-18T10:45:35;10.80;99.90
11812;DHT22;5963;50.184;9.162;2023-02-18T10:48:23;10.80;99.90
11812;DHT22;5963;50.184;9.162;2023-02-18T10:50:55;10.90;99.90
11812;DHT22;5963;50.184;9.162;2023-02-18T10:53:32;10.90;99.90
11812;DHT22;5963;50.184;9.162;2023-02-18T10:56:04;10.90;99.90
11812;DHT22;5963;50.184;9.162;2023-02-18T10:58:36;10.90;99.90
11812;DHT22;5963;50.184;9.162;2023-02-18T11:01:12;11.10;99.90
11812;DHT22;5963;50.184;9.162;2023-02-18T11:03:43;11.00;99.90
11812;DHT22;5963;50.184;9.162;2023-02-18T11:06:20;11.20;99.90
11812;DHT22;5963;50.184;9.162;2023-02-18T11:08:52;11.10;99.90
11812;DHT22;5963;50.184;9.162;2023-02-18T11:11:24;11.20;99.90
11812;DHT22;5963;50.184;9.162;2023-02-18T11:13:54;11.20;99.90
11812;DHT22;5963;50.184;9.162;2023-02-18T11:16:36;11.20;99.90
11812;DHT22;5963;50.184;9.162;2023-02-18T11:19:04;11.20;99.90
11812;DHT22;5963;50.184;9.162;2023-02-18T11:22:06;11.20;99.90
11812;DHT22;5963;50.184;9.162;2023-02-18T11:24:41;11.30;99.90
11812;DHT22;5963;50.184;9.162;2023-02-18T11:27:20;11.20;99.90
11812;DHT22;5963;50.184;9.162;2023-02-18T11:29:51;11.20;99.90
11812;DHT22;5963;50.184;9.162;2023-02-18T11:32:26;11.20;99.90
11812;DHT22;5963;50.184;9.162;2023-02-18T11:34:54;11.30;99.90
11812;DHT22;5963;50.184;9.162;2023-02-18T11:37:23;11.20;99.90
11812;DHT22;5963;50.184;9.162;2023-02-18T11:39:54;11.20;99.90
11812;DHT22;5963;50.184;9.162;2023-02-18T11:42:24;11.20;99.90
11812;DHT22;5963;50.184;9.162;2023-02-18T11:44:58;11.20;99.90
11812;DHT22;5963;50.184;9.162;2023-02-18T11:47:41;11.10;99.90
11812;DHT22;5963;50.184;9.162;2023-02-18T11:50:20;11.10;99.90
11812;DHT22;5963;50.184;9.162;2023-02-18T11:52:52;11.00;99.90
11812;DHT22;5963;50.184;9.162;2023-02-18T11:55:25;11.10;99.90
11812;DHT22;5963;50.184;9.162;2023-02-18T11:57:57;11.10;99.90
11812;DHT22;5963;50.184;9.162;2023-02-18T12:00:36;11.00;99.90
11812;DHT22;5963;50.184;9.162;2023-02-18T12:03:17;10.90;99.90
11812;DHT22;5963;50.184;9.162;2023-02-18T12:05:46;10.90;99.90
11812;DHT22;5963;50.184;9.162;2023-02-18T12:08:21;10.90;99.90
11812;DHT22;5963;50.184;9.162;2023-02-18T12:10:53;11.00;99.90
11812;DHT22;5963;50.184;9.162;2023-02-18T12:13:26;11.10;99.90
11812;DHT22;5963;50.184;9.162;2023-02-18T12:16:06;11.00;99.90
11812;DHT22;5963;50.184;9.162;2023-02-18T12:18:53;11.00;99.90
11812;DHT22;5963;50.184;9.162;2023-02-18T12:21:38;10.90;99.90
11812;DHT22;5963;50.184;9.162;2023-02-18T12:24:21;10.90;99.90
11812;DHT22;5963;50.184;9.162;2023-02-18T12:27:00;11.00;99.90
11812;DHT22;5963;50.184;9.162;2023-02-18T12:29:45;11.00;99.90
11812;DHT22;5963;50.184;9.162;2023-02-18T12:32:27;11.20;99.90
11812;DHT22;5963;50.184;9.162;2023-02-18T12:35:26;11.10;99.90
11812;DHT22;5963;50.184;9.162;2023-02-18T12:38:15;11.10;99.90
11812;DHT22;5963;50.184;9.162;2023-02-18T12:41:00;11.10;99.90
11812;DHT22;5963;50.184;9.162;2023-02-18T12:43:44;11.10;99.90
11812;DHT22;5963;50.184;9.162;2023-02-18T12:46:33;11.10;99.90
11812;DHT22;5963;50.184;9.162;2023-02-18T12:49:39;11.10;99.90
11812;DHT22;5963;50.184;9.162;2023-02-18T12:52:21;10.90;99.90
11812;DHT22;5963;50.184;9.162;2023-02-18T12:55:31;10.90;99.90
11812;DHT22;5963;50.184;9.162;2023-02-18T12:58:25;10.90;99.90
11812;DHT22;5963;50.184;9.162;2023-02-18T13:01:05;10.90;99.90
11812;DHT22;5963;50.184;9.162;2023-02-18T13:04:08;11.00;99.90
11812;DHT22;5963;50.184;9.162;2023-02-18T13:10:06;11.10;99.90
11812;DHT22;5963;50.184;9.162;2023-02-18T13:12:45;11.00;99.90
11812;DHT22;5963;50.184;9.162;2023-02-18T13:15:19;11.00;99.90
11812;DHT22;5963;50.184;9.162;2023-02-18T13:18:03;11.00;99.90
11812;DHT22;5963;50.184;9.162;2023-02-18T13:20:41;11.10;99.90
11812;DHT22;5963;50.184;9.162;2023-02-18T13:23:23;11.10;99.90
11812;DHT22;5963;50.184;9.162;2023-02-18T13:26:05;11.20;99.90
11812;DHT22;5963;50.184;9.162;2023-02-18T13:28:45;11.20;99.90
11812;DHT22;5963;50.184;9.162;2023-02-18T13:31:30;11.10;99.90
11812;DHT22;5963;50.184;9.162;2023-02-18T13:34:06;11.00;99.90
11812;DHT22;5963;50.184;9.162;2023-02-18T13:36:53;11.00;99.90
11812;DHT22;5963;50.184;9.162;2023-02-18T13:39:27;11.10;99.90
11812;DHT22;5963;50.184;9.162;2023-02-18T13:42:23;11.00;99.90
11812;DHT22;5963;50.184;9.162;2023-02-18T13:45:14;10.90;99.90
11812;DHT22;5963;50.184;9.162;2023-02-18T13:48:00;10.90;99.90
11812;DHT22;5963;50.184;9.162;2023-02-18T13:50:31;10.90;99.90
11812;DHT22;5963;50.184;9.162;2023-02-18T13:53:30;10.90;99.90
11812;DHT22;5963;50.184;9.162;2023-02-18T13:56:04;10.90;99.90
11812;DHT22;5963;50.184;9.162;2023-02-18T13:58:41;10.90;99.90
11812;DHT22;5963;50.184;9.162;2023-02-18T14:01:20;11.00;99.90
11812;DHT22;5963;50.184;9.162;2023-02-18T14:03:56;11.00;99.90
11812;DHT22;5963;50.184;9.162;2023-02-18T14:06:27;10.90;99.90
11812;DHT22;5963;50.184;9.162;2023-02-18T14:12:35;10.80;99.90
11812;DHT22;5963;50.184;9.162;2023-02-18T14:18:53;10.70;99.90
11812;DHT22;5963;50.184;9.162;2023-02-18T14:21:42;10.80;99.90
11812;DHT22;5963;50.184;9.162;2023-02-18T14:24:12;10.70;99.90
11812;DHT22;5963;50.184;9.162;2023-02-18T14:26:47;10.70;99.90
11812;DHT22;5963;50.184;9.162;2023-02-18T14:29:29;10.70;99.90
11812;DHT22;5963;50.184;9.162;2023-02-18T14:32:01;10.70;99.90
11812;DHT22;5963;50.184;9.162;2023-02-18T14:35:12;10.60;99.90
11812;DHT22;5963;50.184;9.162;2023-02-18T14:38:11;10.70;99.90
11812;DHT22;5963;50.184;9.162;2023-02-18T14:41:04;10.70;99.90
11812;DHT22;5963;50.184;9.162;2023-02-18T14:44:10;10.70;99.90
11812;DHT22;5963;50.184;9.162;2023-02-18T14:46:58;10.70;99.90
11812;DHT22;5963;50.184;9.162;2023-02-18T14:49:37;10.70;99.90
11812;DHT22;5963;50.184;9.162;2023-02-18T14:52:21;10.70;99.90
11812;DHT22;5963;50.184;9.162;2023-02-18T14:54:51;10.70;99.90
11812;DHT22;5963;50.184;9.162;2023-02-18T14:57:30;10.60;99.90
11812;DHT22;5963;50.184;9.162;2023-02-18T15:00:01;10.60;99.90
11812;DHT22;5963;50.184;9.162;2023-02-18T15:02:35;10.60;99.90
11812;DHT22;5963;50.184;9.162;2023-02-18T15:05:35;10.70;99.90
11812;DHT22;5963;50.184;9.162;2023-02-18T15:08:14;10.70;99.90
11812;DHT22;5963;50.184;9.162;2023-02-18T15:10:47;10.70;99.90
11812;DHT22;5963;50.184;9.162;2023-02-18T15:13:25;10.60;99.90
11812;DHT22;5963;50.184;9.162;2023-02-18T15:15:57;10.50;99.90
11812;DHT22;5963;50.184;9.162;2023-02-18T15:18:30;10.40;99.90
11812;DHT22;5963;50.184;9.162;2023-02-18T15:21:06;10.40;99.90
11812;DHT22;5963;50.184;9.162;2023-02-18T15:23:38;10.50;99.90
11812;DHT22;5963;50.184;9.162;2023-02-18T15:26:13;10.50;99.90
11812;DHT22;5963;50.184;9.162;2023-02-18T15:28:53;10.50;99.90
11812;DHT22;5963;50.184;9.162;2023-02-18T15:31:25;10.40;99.90
11812;DHT22;5963;50.184;9.162;2023-02-18T15:33:54;10.40;99.90
11812;DHT22;5963;50.184;9.162;2023-02-18T15:36:24;10.40;99.90
11812;DHT22;5963;50.184;9.162;2023-02-18T15:38:55;10.40;99.90
11812;DHT22;5963;50.184;9.162;2023-02-18T15:41:27;10.30;99.90
11812;DHT22;5963;50.184;9.162;2023-02-18T15:44:08;10.40;99.90
11812;DHT22;5963;50.184;9.162;2023-02-18T15:46:43;10.30;99.90
11812;DHT22;5963;50.184;9.162;2023-02-18T15:49:19;10.40;99.90
11812;DHT22;5963;50.184;9.162;2023-02-18T15:52:11;10.40;99.90
11812;DHT22;5963;50.184;9.162;2023-02-18T15:54:42;10.40;99.90
11812;DHT22;5963;50.184;9.162;2023-02-18T15:57:14;10.40;99.90
11812;DHT22;5963;50.184;9.162;2023-02-18T15:59:59;10.40;99.90
11812;DHT22;5963;50.184;9.162;2023-02-18T16:02:32;10.40;99.90
11812;DHT22;5963;50.184;9.162;2023-02-18T16:05:12;10.40;99.90
11812;DHT22;5963;50.184;9.162;2023-02-18T16:07:57;10.40;99.90
11812;DHT22;5963;50.184;9.162;2023-02-18T16:10:46;10.40;99.90
11812;DHT22;5963;50.184;9.162;2023-02-18T16:13:21;10.40;99.90
11812;DHT22;5963;50.184;9.162;2023-02-18T16:15:52;10.40;99.90
11812;DHT22;5963;50.184;9.162;2023-02-18T16:18:24;10.40;99.90
11812;DHT22;5963;50.184;9.162;2023-02-18T16:20:56;10.40;99.90
11812;DHT22;5963;50.184;9.162;2023-02-18T16:23:31;10.40;99.90
11812;DHT22;5963;50.184;9.162;2023-02-18T16:26:20;10.40;99.90
11812;DHT22;5963;50.184;9.162;2023-02-18T16:28:52;10.40;99.90
11812;DHT22;5963;50.184;9.162;2023-02-18T16:31:23;10.40;99.90
11812;DHT22;5963;50.184;9.162;2023-02-18T16:33:51;10.40;99.90
11812;DHT22;5963;50.184;9.162;2023-02-18T16:36:22;10.30;99.90
11812;DHT22;5963;50.184;9.162;2023-02-18T16:38:51;10.40;99.90
11812;DHT22;5963;50.184;9.162;2023-02-18T16:41:22;10.40;99.90
11812;DHT22;5963;50.184;9.162;2023-02-18T16:43:55;10.40;99.90
11812;DHT22;5963;50.184;9.162;2023-02-18T16:46:32;10.40;99.90
11812;DHT22;5963;50.184;9.162;2023-02-18T16:49:01;10.40;99.90
11812;DHT22;5963;50.184;9.162;2023-02-18T16:51:31;10.40;99.90
11812;DHT22;5963;50.184;9.162;2023-02-18T16:54:00;10.40;99.90
11812;DHT22;5963;50.184;9.162;2023-02-18T16:56:31;10.30;99.90
11812;DHT22;5963;50.184;9.162;2023-02-18T16:59:01;10.40;99.90
11812;DHT22;5963;50.184;9.162;2023-02-18T17:01:31;10.40;99.90
11812;DHT22;5963;50.184;9.162;2023-02-18T17:04:02;10.40;99.90
11812;DHT22;5963;50.184;9.162;2023-02-18T17:06:33;10.30;99.90
11812;DHT22;5963;50.184;9.162;2023-02-18T17:09:05;10.30;99.90
11812;DHT22;5963;50.184;9.162;2023-02-18T17:11:35;10.30;99.90
11812;DHT22;5963;50.184;9.162;2023-02-18T17:14:06;10.30;99.90
11812;DHT22;5963;50.184;9.162;2023-02-18T17:16:34;10.30;99.90
11812;DHT22;5963;50.184;9.162;2023-02-18T17:19:04;10.40;99.90
11812;DHT22;5963;50.184;9.162;2023-02-18T17:21:36;10.40;99.90
11812;DHT22;5963;50.184;9.162;2023-02-18T17:24:20;10.30;99.90
11812;DHT22;5963;50.184;9.162;2023-02-18T17:26:54;10.30;99.90
11812;DHT22;5963;50.184;9.162;2023-02-18T17:29:25;10.30;99.90
11812;DHT22;5963;50.184;9.162;2023-02-18T17:31:55;10.30;99.90
11812;DHT22;5963;50.184;9.162;2023-02-18T17:34:27;10.30;99.90
11812;DHT22;5963;50.184;9.162;2023-02-18T17:36:59;10.30;99.90
11812;DHT22;5963;50.184;9.162;2023-02-18T17:39:27;10.30;99.90
11812;DHT22;5963;50.184;9.162;2023-02-18T17:41:58;10.30;99.90
11812;DHT22;5963;50.184;9.162;2023-02-18T17:44:31;10.40;99.90
11812;DHT22;5963;50.184;9.162;2023-02-18T17:46:59;10.30;99.90
11812;DHT22;5963;50.184;9.162;2023-02-18T17:49:29;10.30;99.90
11812;DHT22;5963;50.184;9.162;2023-02-18T17:52:08;10.30;99.90
11812;DHT22;5963;50.184;9.162;2023-02-18T17:54:43;10.30;99.90
11812;DHT22;5963;50.184;9.162;2023-02-18T17:57:17;10.30;99.90
11812;DHT22;5963;50.184;9.162;2023-02-18T17:59:47;10.30;99.90
11812;DHT22;5963;50.184;9.162;2023-02-18T18:02:27;10.30;99.90
11812;DHT22;5963;50.184;9.162;2023-02-18T18:04:59;10.30;99.90
11812;DHT22;5963;50.184;9.162;2023-02-18T18:07:28;10.20;99.90
11812;DHT22;5963;50.184;9.162;2023-02-18T18:09:56;10.30;99.90
11812;DHT22;5963;50.184;9.162;2023-02-18T18:12:30;10.30;99.90
11812;DHT22;5963;50.184;9.162;2023-02-18T18:14:58;10.30;99.90
11812;DHT22;5963;50.184;9.162;2023-02-18T18:17:32;10.30;99.90
11812;DHT22;5963;50.184;9.162;2023-02-18T18:20:00;10.20;99.90
11812;DHT22;5963;50.184;9.162;2023-02-18T18:22:33;10.20;99.90
11812;DHT22;5963;50.184;9.162;2023-02-18T18:25:13;10.20;99.90
11812;DHT22;5963;50.184;9.162;2023-02-18T18:27:45;10.20;99.90